Sault Sainte Marie, Michigan
Current Conditions -  °F | °C
As of 10:55 PM on Tuesday 27 Jan 2015 (Local Time) from KANJ Reporting Station
Clear Clear  
Wind Chill:   Ceiling: Unl
Heat Index:   Visibility: 10mi
Dew Point: -4°   Wind: 0mph
Humidity: 63%   Direction: NA
Pressure: 30.23"   Gusts: NA
Location:  46.3629°N, 84.3293°W
Report Text: KANJ 280355Z AUTO 00000KT 10SM CLR M14/M20 A3023 RMK AO2 SLP254 T11441200
Loading
Personal Weather Stations






























Interactive Weather Map New forecast layout! Learn more

10-Day Weather Forecast

Advertisements
Track Severe Weather on mobile